sensor_id;sensor_type;location;lat;lon;timestamp;P1;durP1;ratioP1;P2;durP2;ratioP2
38332;SDS011;25748;46.670;14.272;2023-03-01T00:00:39;10.27;;;4.78;;
38332;SDS011;25748;46.670;14.272;2023-03-01T00:03:05;9.45;;;4.20;;
38332;SDS011;25748;46.670;14.272;2023-03-01T00:05:31;8.70;;;3.38;;
38332;SDS011;25748;46.670;14.272;2023-03-01T00:07:57;12.90;;;4.15;;
38332;SDS011;25748;46.670;14.272;2023-03-01T00:10:23;15.02;;;4.40;;
38332;SDS011;25748;46.670;14.272;2023-03-01T00:12:49;10.23;;;3.85;;
38332;SDS011;25748;46.670;14.272;2023-03-01T00:15:14;13.55;;;4.88;;
38332;SDS011;25748;46.670;14.272;2023-03-01T00:17:40;11.98;;;4.13;;
38332;SDS011;25748;46.670;14.272;2023-03-01T00:20:06;12.68;;;4.88;;
38332;SDS011;25748;46.670;14.272;2023-03-01T00:22:35;11.13;;;5.18;;
38332;SDS011;25748;46.670;14.272;2023-03-01T00:25:02;11.60;;;4.72;;
38332;SDS011;25748;46.670;14.272;2023-03-01T00:27:28;14.02;;;5.70;;
38332;SDS011;25748;46.670;14.272;2023-03-01T00:29:54;13.40;;;5.65;;
38332;SDS011;25748;46.670;14.272;2023-03-01T00:32:19;14.07;;;5.57;;
38332;SDS011;25748;46.670;14.272;2023-03-01T00:34:45;16.80;;;6.22;;
38332;SDS011;25748;46.670;14.272;2023-03-01T00:37:19;15.48;;;5.70;;
38332;SDS011;25748;46.670;14.272;2023-03-01T00:39:46;11.75;;;5.97;;
38332;SDS011;25748;46.670;14.272;2023-03-01T00:42:12;13.98;;;7.05;;
38332;SDS011;25748;46.670;14.272;2023-03-01T00:44:37;16.55;;;6.22;;
38332;SDS011;25748;46.670;14.272;2023-03-01T00:47:03;17.02;;;6.68;;
38332;SDS011;25748;46.670;14.272;2023-03-01T00:49:29;18.10;;;6.18;;
38332;SDS011;25748;46.670;14.272;2023-03-01T00:51:54;17.40;;;6.75;;
38332;SDS011;25748;46.670;14.272;2023-03-01T00:54:20;13.95;;;5.90;;
38332;SDS011;25748;46.670;14.272;2023-03-01T00:56:46;14.80;;;5.45;;
38332;SDS011;25748;46.670;14.272;2023-03-01T00:59:11;16.63;;;6.18;;
38332;SDS011;25748;46.670;14.272;2023-03-01T01:01:37;16.45;;;5.82;;
38332;SDS011;25748;46.670;14.272;2023-03-01T01:04:10;15.80;;;5.68;;
38332;SDS011;25748;46.670;14.272;2023-03-01T01:06:38;14.23;;;5.38;;
38332;SDS011;25748;46.670;14.272;2023-03-01T01:09:10;15.35;;;6.10;;
38332;SDS011;25748;46.670;14.272;2023-03-01T01:11:44;16.67;;;7.30;;
38332;SDS011;25748;46.670;14.272;2023-03-01T01:14:11;12.02;;;6.20;;
38332;SDS011;25748;46.670;14.272;2023-03-01T01:16:37;21.25;;;6.47;;
38332;SDS011;25748;46.670;14.272;2023-03-01T01:19:03;12.38;;;5.68;;
38332;SDS011;25748;46.670;14.272;2023-03-01T01:21:29;17.48;;;5.50;;
38332;SDS011;25748;46.670;14.272;2023-03-01T01:23:55;11.13;;;5.90;;
38332;SDS011;25748;46.670;14.272;2023-03-01T01:26:25;14.27;;;5.70;;
38332;SDS011;25748;46.670;14.272;2023-03-01T01:28:55;16.05;;;6.13;;
38332;SDS011;25748;46.670;14.272;2023-03-01T01:31:21;15.52;;;6.10;;
38332;SDS011;25748;46.670;14.272;2023-03-01T01:33:50;16.55;;;6.38;;
38332;SDS011;25748;46.670;14.272;2023-03-01T01:36:17;14.73;;;5.82;;
38332;SDS011;25748;46.670;14.272;2023-03-01T01:38:42;20.25;;;6.30;;
38332;SDS011;25748;46.670;14.272;2023-03-01T01:41:08;20.48;;;6.22;;
38332;SDS011;25748;46.670;14.272;2023-03-01T01:43:42;13.32;;;5.82;;
38332;SDS011;25748;46.670;14.272;2023-03-01T01:49:41;19.13;;;5.78;;
38332;SDS011;25748;46.670;14.272;2023-03-01T01:55:05;14.60;;;6.22;;
38332;SDS011;25748;46.670;14.272;2023-03-01T01:57:48;11.07;;;6.18;;
38332;SDS011;25748;46.670;14.272;2023-03-01T02:00:21;12.52;;;6.03;;
38332;SDS011;25748;46.670;14.272;2023-03-01T02:02:49;13.98;;;5.60;;
38332;SDS011;25748;46.670;14.272;2023-03-01T02:05:28;16.55;;;6.00;;
38332;SDS011;25748;46.670;14.272;2023-03-01T02:08:04;12.52;;;5.95;;
38332;SDS011;25748;46.670;14.272;2023-03-01T02:10:32;13.27;;;5.93;;
38332;SDS011;25748;46.670;14.272;2023-03-01T02:13:00;12.90;;;5.90;;
38332;SDS011;25748;46.670;14.272;2023-03-01T02:15:26;11.88;;;5.40;;
38332;SDS011;25748;46.670;14.272;2023-03-01T02:17:56;10.98;;;5.95;;
38332;SDS011;25748;46.670;14.272;2023-03-01T02:20:26;15.30;;;5.50;;
38332;SDS011;25748;46.670;14.272;2023-03-01T02:23:11;14.10;;;5.00;;
38332;SDS011;25748;46.670;14.272;2023-03-01T02:25:53;13.32;;;6.30;;
38332;SDS011;25748;46.670;14.272;2023-03-01T02:28:29;11.55;;;4.65;;
38332;SDS011;25748;46.670;14.272;2023-03-01T02:30:55;16.50;;;6.40;;
38332;SDS011;25748;46.670;14.272;2023-03-01T02:33:40;10.32;;;4.82;;
38332;SDS011;25748;46.670;14.272;2023-03-01T02:36:11;15.18;;;5.45;;
38332;SDS011;25748;46.670;14.272;2023-03-01T02:38:40;16.40;;;6.90;;
38332;SDS011;25748;46.670;14.272;2023-03-01T02:41:07;12.15;;;5.43;;
38332;SDS011;25748;46.670;14.272;2023-03-01T02:43:36;13.45;;;5.22;;
38332;SDS011;25748;46.670;14.272;2023-03-01T02:46:04;11.90;;;6.03;;
38332;SDS011;25748;46.670;14.272;2023-03-01T02:48:41;16.58;;;5.78;;
38332;SDS011;25748;46.670;14.272;2023-03-01T02:56:56;12.20;;;5.80;;
38332;SDS011;25748;46.670;14.272;2023-03-01T02:59:24;16.30;;;5.90;;
38332;SDS011;25748;46.670;14.272;2023-03-01T03:01:52;12.82;;;5.80;;
38332;SDS011;25748;46.670;14.272;2023-03-01T03:04:18;17.92;;;5.13;;
38332;SDS011;25748;46.670;14.272;2023-03-01T03:06:46;12.57;;;4.85;;
38332;SDS011;25748;46.670;14.272;2023-03-01T03:09:14;13.98;;;5.43;;
38332;SDS011;25748;46.670;14.272;2023-03-01T03:11:41;13.88;;;5.43;;
38332;SDS011;25748;46.670;14.272;2023-03-01T03:14:10;11.35;;;5.13;;
38332;SDS011;25748;46.670;14.272;2023-03-01T03:16:41;13.07;;;5.22;;
38332;SDS011;25748;46.670;14.272;2023-03-01T03:19:09;13.93;;;5.45;;
38332;SDS011;25748;46.670;14.272;2023-03-01T03:21:35;13.57;;;5.70;;
38332;SDS011;25748;46.670;14.272;2023-03-01T03:24:01;12.02;;;5.60;;
38332;SDS011;25748;46.670;14.272;2023-03-01T03:26:27;16.83;;;6.00;;
38332;SDS011;25748;46.670;14.272;2023-03-01T03:28:52;19.25;;;6.32;;
38332;SDS011;25748;46.670;14.272;2023-03-01T03:31:18;19.23;;;5.82;;
38332;SDS011;25748;46.670;14.272;2023-03-01T03:33:44;15.95;;;5.65;;
38332;SDS011;25748;46.670;14.272;2023-03-01T03:36:14;17.00;;;6.05;;
38332;SDS011;25748;46.670;14.272;2023-03-01T03:38:45;13.88;;;6.10;;
38332;SDS011;25748;46.670;14.272;2023-03-01T03:41:11;15.55;;;5.57;;
38332;SDS011;25748;46.670;14.272;2023-03-01T03:43:38;14.70;;;5.93;;
38332;SDS011;25748;46.670;14.272;2023-03-01T03:46:05;13.32;;;5.40;;
38332;SDS011;25748;46.670;14.272;2023-03-01T03:48:36;14.43;;;5.53;;
38332;SDS011;25748;46.670;14.272;2023-03-01T03:51:06;11.63;;;5.65;;
38332;SDS011;25748;46.670;14.272;2023-03-01T03:53:34;11.65;;;5.10;;
38332;SDS011;25748;46.670;14.272;2023-03-01T03:56:00;19.73;;;6.45;;
38332;SDS011;25748;46.670;14.272;2023-03-01T03:58:26;16.00;;;6.00;;
38332;SDS011;25748;46.670;14.272;2023-03-01T04:00:53;12.75;;;5.55;;
38332;SDS011;25748;46.670;14.272;2023-03-01T04:03:24;12.48;;;5.38;;
38332;SDS011;25748;46.670;14.272;2023-03-01T04:05:51;15.13;;;5.65;;
38332;SDS011;25748;46.670;14.272;2023-03-01T04:08:20;22.35;;;6.63;;
38332;SDS011;25748;46.670;14.272;2023-03-01T04:10:48;16.02;;;6.10;;
38332;SDS011;25748;46.670;14.272;2023-03-01T04:13:17;17.92;;;6.85;;
38332;SDS011;25748;46.670;14.272;2023-03-01T04:15:53;13.27;;;6.75;;
38332;SDS011;25748;46.670;14.272;2023-03-01T04:18:20;17.27;;;6.90;;
38332;SDS011;25748;46.670;14.272;2023-03-01T04:20:48;12.30;;;5.75;;
38332;SDS011;25748;46.670;14.272;2023-03-01T04:23:15;14.65;;;6.95;;
38332;SDS011;25748;46.670;14.272;2023-03-01T04:25:46;10.82;;;5.45;;
38332;SDS011;25748;46.670;14.272;2023-03-01T04:28:14;13.60;;;6.38;;
38332;SDS011;25748;46.670;14.272;2023-03-01T04:30:40;16.48;;;6.15;;
38332;SDS011;25748;46.670;14.272;2023-03-01T04:33:07;12.40;;;5.55;;
38332;SDS011;25748;46.670;14.272;2023-03-01T04:35:34;17.98;;;6.20;;
38332;SDS011;25748;46.670;14.272;2023-03-01T04:38:00;15.15;;;6.90;;
38332;SDS011;25748;46.670;14.272;2023-03-01T04:40:27;14.85;;;6.45;;
38332;SDS011;25748;46.670;14.272;2023-03-01T04:42:52;15.68;;;6.30;;
38332;SDS011;25748;46.670;14.272;2023-03-01T04:45:19;17.02;;;5.70;;
38332;SDS011;25748;46.670;14.272;2023-03-01T04:47:45;14.95;;;6.00;;
38332;SDS011;25748;46.670;14.272;2023-03-01T04:50:16;14.30;;;6.68;;
38332;SDS011;25748;46.670;14.272;2023-03-01T04:52:45;14.95;;;6.18;;
38332;SDS011;25748;46.670;14.272;2023-03-01T04:55:12;14.43;;;5.68;;
38332;SDS011;25748;46.670;14.272;2023-03-01T04:57:37;18.42;;;6.85;;
38332;SDS011;25748;46.670;14.272;2023-03-01T05:00:04;14.70;;;4.82;;
38332;SDS011;25748;46.670;14.272;2023-03-01T05:02:45;14.83;;;5.90;;
38332;SDS011;25748;46.670;14.272;2023-03-01T05:05:23;14.45;;;6.10;;
38332;SDS011;25748;46.670;14.272;2023-03-01T05:07:55;14.82;;;5.80;;
38332;SDS011;25748;46.670;14.272;2023-03-01T05:10:22;10.82;;;5.32;;
38332;SDS011;25748;46.670;14.272;2023-03-01T05:12:49;17.15;;;5.40;;
38332;SDS011;25748;46.670;14.272;2023-03-01T05:15:16;13.25;;;5.50;;
38332;SDS011;25748;46.670;14.272;2023-03-01T05:17:42;11.88;;;5.20;;
38332;SDS011;25748;46.670;14.272;2023-03-01T05:20:08;13.35;;;5.47;;
38332;SDS011;25748;46.670;14.272;2023-03-01T05:22:35;14.32;;;6.13;;
38332;SDS011;25748;46.670;14.272;2023-03-01T05:25:01;12.52;;;5.10;;
38332;SDS011;25748;46.670;14.272;2023-03-01T05:27:27;15.45;;;6.30;;
38332;SDS011;25748;46.670;14.272;2023-03-01T05:29:54;12.95;;;5.60;;
38332;SDS011;25748;46.670;14.272;2023-03-01T05:32:20;11.45;;;5.55;;
38332;SDS011;25748;46.670;14.272;2023-03-01T05:34:46;13.93;;;5.35;;
38332;SDS011;25748;46.670;14.272;2023-03-01T05:37:12;15.40;;;6.60;;
38332;SDS011;25748;46.670;14.272;2023-03-01T05:39:38;18.95;;;6.15;;
38332;SDS011;25748;46.670;14.272;2023-03-01T05:42:04;14.43;;;5.90;;
38332;SDS011;25748;46.670;14.272;2023-03-01T05:44:30;14.85;;;5.22;;
38332;SDS011;25748;46.670;14.272;2023-03-01T05:46:56;15.20;;;5.35;;
38332;SDS011;25748;46.670;14.272;2023-03-01T05:49:22;12.77;;;5.85;;
38332;SDS011;25748;46.670;14.272;2023-03-01T05:51:51;16.75;;;6.07;;
38332;SDS011;25748;46.670;14.272;2023-03-01T05:54:18;12.90;;;5.47;;
38332;SDS011;25748;46.670;14.272;2023-03-01T05:56:45;13.48;;;6.20;;
38332;SDS011;25748;46.670;14.272;2023-03-01T05:59:11;12.70;;;5.63;;
38332;SDS011;25748;46.670;14.272;2023-03-01T06:01:37;16.95;;;5.90;;
38332;SDS011;25748;46.670;14.272;2023-03-01T06:04:03;10.10;;;5.60;;
38332;SDS011;25748;46.670;14.272;2023-03-01T06:06:30;12.80;;;6.38;;
38332;SDS011;25748;46.670;14.272;2023-03-01T06:08:59;14.05;;;6.55;;
38332;SDS011;25748;46.670;14.272;2023-03-01T06:11:24;15.00;;;6.88;;
38332;SDS011;25748;46.670;14.272;2023-03-01T06:13:50;12.07;;;5.72;;
38332;SDS011;25748;46.670;14.272;2023-03-01T06:16:16;14.13;;;6.20;;
38332;SDS011;25748;46.670;14.272;2023-03-01T06:18:41;21.98;;;7.43;;
38332;SDS011;25748;46.670;14.272;2023-03-01T06:21:08;14.23;;;5.88;;
38332;SDS011;25748;46.670;14.272;2023-03-01T06:23:34;18.02;;;6.93;;
38332;SDS011;25748;46.670;14.272;2023-03-01T06:26:00;20.52;;;6.68;;
38332;SDS011;25748;46.670;14.272;2023-03-01T06:28:29;15.40;;;6.43;;
38332;SDS011;25748;46.670;14.272;2023-03-01T06:30:55;20.25;;;7.30;;
38332;SDS011;25748;46.670;14.272;2023-03-01T06:33:21;18.52;;;7.32;;
38332;SDS011;25748;46.670;14.272;2023-03-01T06:35:49;17.17;;;6.95;;
38332;SDS011;25748;46.670;14.272;2023-03-01T06:38:15;14.68;;;5.68;;
38332;SDS011;25748;46.670;14.272;2023-03-01T06:40:43;18.55;;;6.65;;
38332;SDS011;25748;46.670;14.272;2023-03-01T06:43:09;15.50;;;6.20;;
38332;SDS011;25748;46.670;14.272;2023-03-01T06:45:34;16.83;;;6.78;;
38332;SDS011;25748;46.670;14.272;2023-03-01T06:48:02;19.55;;;6.22;;
38332;SDS011;25748;46.670;14.272;2023-03-01T06:50:29;14.88;;;6.22;;
38332;SDS011;25748;46.670;14.272;2023-03-01T06:52:55;17.70;;;5.80;;
38332;SDS011;25748;46.670;14.272;2023-03-01T06:55:21;16.35;;;6.65;;
38332;SDS011;25748;46.670;14.272;2023-03-01T06:57:47;17.60;;;7.30;;
38332;SDS011;25748;46.670;14.272;2023-03-01T07:00:13;21.13;;;6.97;;
38332;SDS011;25748;46.670;14.272;2023-03-01T07:02:39;18.80;;;6.68;;
38332;SDS011;25748;46.670;14.272;2023-03-01T07:05:05;21.30;;;6.78;;
38332;SDS011;25748;46.670;14.272;2023-03-01T07:07:30;19.15;;;6.90;;
38332;SDS011;25748;46.670;14.272;2023-03-01T07:09:56;18.48;;;6.43;;
38332;SDS011;25748;46.670;14.272;2023-03-01T07:12:22;14.02;;;6.82;;
38332;SDS011;25748;46.670;14.272;2023-03-01T07:14:48;24.25;;;8.25;;
38332;SDS011;25748;46.670;14.272;2023-03-01T07:17:13;21.77;;;7.85;;
38332;SDS011;25748;46.670;14.272;2023-03-01T07:19:39;15.32;;;7.80;;
38332;SDS011;25748;46.670;14.272;2023-03-01T07:22:05;19.05;;;8.43;;
38332;SDS011;25748;46.670;14.272;2023-03-01T07:24:32;15.48;;;6.93;;
38332;SDS011;25748;46.670;14.272;2023-03-01T07:26:58;21.40;;;7.75;;
38332;SDS011;25748;46.670;14.272;2023-03-01T07:29:24;21.67;;;8.13;;
38332;SDS011;25748;46.670;14.272;2023-03-01T07:31:50;22.20;;;7.60;;
38332;SDS011;25748;46.670;14.272;2023-03-01T07:34:15;26.90;;;8.10;;
38332;SDS011;25748;46.670;14.272;2023-03-01T07:36:41;17.63;;;7.03;;
38332;SDS011;25748;46.670;14.272;2023-03-01T07:39:08;17.25;;;6.60;;
38332;SDS011;25748;46.670;14.272;2023-03-01T07:41:35;17.23;;;7.07;;
38332;SDS011;25748;46.670;14.272;2023-03-01T07:44:00;17.88;;;7.38;;
38332;SDS011;25748;46.670;14.272;2023-03-01T07:46:26;21.20;;;7.45;;
38332;SDS011;25748;46.670;14.272;2023-03-01T07:48:52;16.08;;;7.95;;
38332;SDS011;25748;46.670;14.272;2023-03-01T07:51:17;14.70;;;6.53;;
38332;SDS011;25748;46.670;14.272;2023-03-01T07:53:45;18.50;;;7.75;;
38332;SDS011;25748;46.670;14.272;2023-03-01T07:56:13;23.05;;;7.82;;
38332;SDS011;25748;46.670;14.272;2023-03-01T07:58:40;19.33;;;8.07;;
38332;SDS011;25748;46.670;14.272;2023-03-01T08:01:11;18.55;;;7.90;;
38332;SDS011;25748;46.670;14.272;2023-03-01T08:03:38;28.88;;;8.50;;
38332;SDS011;25748;46.670;14.272;2023-03-01T08:06:05;20.83;;;8.38;;
38332;SDS011;25748;46.670;14.272;2023-03-01T08:08:32;19.98;;;8.43;;
38332;SDS011;25748;46.670;14.272;2023-03-01T08:11:00;18.88;;;7.93;;
38332;SDS011;25748;46.670;14.272;2023-03-01T08:13:27;24.00;;;7.85;;
38332;SDS011;25748;46.670;14.272;2023-03-01T08:15:53;23.55;;;8.65;;
38332;SDS011;25748;46.670;14.272;2023-03-01T08:18:19;20.17;;;7.88;;
38332;SDS011;25748;46.670;14.272;2023-03-01T08:20:46;19.15;;;7.50;;
38332;SDS011;25748;46.670;14.272;2023-03-01T08:23:12;20.45;;;8.43;;
38332;SDS011;25748;46.670;14.272;2023-03-01T08:25:38;23.42;;;7.18;;
38332;SDS011;25748;46.670;14.272;2023-03-01T08:28:04;19.98;;;7.80;;
38332;SDS011;25748;46.670;14.272;2023-03-01T08:30:30;16.08;;;7.45;;
38332;SDS011;25748;46.670;14.272;2023-03-01T08:32:56;22.73;;;7.55;;
38332;SDS011;25748;46.670;14.272;2023-03-01T08:35:21;18.63;;;7.03;;
38332;SDS011;25748;46.670;14.272;2023-03-01T08:37:47;16.23;;;6.70;;
38332;SDS011;25748;46.670;14.272;2023-03-01T08:40:13;14.50;;;6.65;;
38332;SDS011;25748;46.670;14.272;2023-03-01T08:42:40;18.73;;;7.53;;
38332;SDS011;25748;46.670;14.272;2023-03-01T08:45:08;20.58;;;8.30;;
38332;SDS011;25748;46.670;14.272;2023-03-01T08:47:34;22.92;;;7.43;;
38332;SDS011;25748;46.670;14.272;2023-03-01T08:50:00;14.85;;;7.55;;
38332;SDS011;25748;46.670;14.272;2023-03-01T08:52:26;18.80;;;6.90;;
38332;SDS011;25748;46.670;14.272;2023-03-01T08:54:52;21.77;;;7.82;;
38332;SDS011;25748;46.670;14.272;2023-03-01T08:57:17;21.50;;;7.95;;
38332;SDS011;25748;46.670;14.272;2023-03-01T08:59:43;16.17;;;8.05;;
38332;SDS011;25748;46.670;14.272;2023-03-01T09:02:11;19.65;;;8.02;;
38332;SDS011;25748;46.670;14.272;2023-03-01T09:04:38;22.20;;;8.43;;
38332;SDS011;25748;46.670;14.272;2023-03-01T09:07:05;15.35;;;6.57;;
38332;SDS011;25748;46.670;14.272;2023-03-01T09:09:30;21.02;;;8.43;;
38332;SDS011;25748;46.670;14.272;2023-03-01T09:11:56;18.85;;;7.32;;
38332;SDS011;25748;46.670;14.272;2023-03-01T09:14:22;20.38;;;7.38;;
38332;SDS011;25748;46.670;14.272;2023-03-01T09:16:48;20.33;;;7.85;;
38332;SDS011;25748;46.670;14.272;2023-03-01T09:19:13;23.42;;;8.10;;
38332;SDS011;25748;46.670;14.272;2023-03-01T09:21:39;19.55;;;7.53;;
38332;SDS011;25748;46.670;14.272;2023-03-01T09:24:05;20.50;;;8.02;;
38332;SDS011;25748;46.670;14.272;2023-03-01T09:26:36;20.10;;;8.20;;
38332;SDS011;25748;46.670;14.272;2023-03-01T09:29:02;24.23;;;7.97;;
38332;SDS011;25748;46.670;14.272;2023-03-01T09:31:28;17.38;;;7.20;;
38332;SDS011;25748;46.670;14.272;2023-03-01T09:33:53;23.83;;;8.10;;
38332;SDS011;25748;46.670;14.272;2023-03-01T09:36:20;26.02;;;8.52;;
38332;SDS011;25748;46.670;14.272;2023-03-01T09:38:48;18.23;;;7.95;;
38332;SDS011;25748;46.670;14.272;2023-03-01T09:46:12;18.95;;;8.45;;
38332;SDS011;25748;46.670;14.272;2023-03-01T09:48:42;20.65;;;8.32;;
38332;SDS011;25748;46.670;14.272;2023-03-01T09:51:14;21.42;;;7.65;;
38332;SDS011;25748;46.670;14.272;2023-03-01T09:54:02;18.42;;;7.63;;
38332;SDS011;25748;46.670;14.272;2023-03-01T10:01:59;16.10;;;7.07;;
38332;SDS011;25748;46.670;14.272;2023-03-01T10:07:04;21.42;;;7.00;;
38332;SDS011;25748;46.670;14.272;2023-03-01T10:09:35;23.13;;;7.82;;
38332;SDS011;25748;46.670;14.272;2023-03-01T10:12:04;18.85;;;8.20;;
38332;SDS011;25748;46.670;14.272;2023-03-01T10:14:35;25.23;;;8.30;;
38332;SDS011;25748;46.670;14.272;2023-03-01T10:19:49;19.25;;;7.57;;
38332;SDS011;25748;46.670;14.272;2023-03-01T10:22:15;19.17;;;8.25;;
38332;SDS011;25748;46.670;14.272;2023-03-01T10:29:55;18.90;;;8.02;;
38332;SDS011;25748;46.670;14.272;2023-03-01T10:32:32;20.45;;;7.75;;
38332;SDS011;25748;46.670;14.272;2023-03-01T10:34:58;16.38;;;7.78;;
38332;SDS011;25748;46.670;14.272;2023-03-01T10:37:24;17.90;;;7.28;;
38332;SDS011;25748;46.670;14.272;2023-03-01T10:39:56;15.43;;;7.53;;
38332;SDS011;25748;46.670;14.272;2023-03-01T10:42:36;16.27;;;7.55;;
38332;SDS011;25748;46.670;14.272;2023-03-01T10:45:23;16.08;;;7.25;;
38332;SDS011;25748;46.670;14.272;2023-03-01T10:50:39;21.05;;;8.25;;
38332;SDS011;25748;46.670;14.272;2023-03-01T10:56:21;18.80;;;7.43;;
38332;SDS011;25748;46.670;14.272;2023-03-01T10:58:57;20.60;;;8.05;;
38332;SDS011;25748;46.670;14.272;2023-03-01T11:01:31;24.50;;;8.35;;
38332;SDS011;25748;46.670;14.272;2023-03-01T11:04:17;21.95;;;8.57;;
38332;SDS011;25748;46.670;14.272;2023-03-01T11:06:43;23.17;;;8.18;;
38332;SDS011;25748;46.670;14.272;2023-03-01T11:09:24;18.90;;;7.78;;
38332;SDS011;25748;46.670;14.272;2023-03-01T11:11:55;19.85;;;8.35;;
38332;SDS011;25748;46.670;14.272;2023-03-01T11:14:31;19.95;;;7.05;;
38332;SDS011;25748;46.670;14.272;2023-03-01T11:17:01;19.00;;;6.97;;
38332;SDS011;25748;46.670;14.272;2023-03-01T11:19:29;20.50;;;8.27;;
38332;SDS011;25748;46.670;14.272;2023-03-01T11:24:51;23.50;;;8.73;;
38332;SDS011;25748;46.670;14.272;2023-03-01T11:27:23;16.95;;;8.02;;
38332;SDS011;25748;46.670;14.272;2023-03-01T11:32:42;17.27;;;7.03;;
38332;SDS011;25748;46.670;14.272;2023-03-01T11:35:25;16.90;;;8.05;;
38332;SDS011;25748;46.670;14.272;2023-03-01T11:38:02;17.73;;;8.13;;
38332;SDS011;25748;46.670;14.272;2023-03-01T11:40:35;19.77;;;8.43;;
38332;SDS011;25748;46.670;14.272;2023-03-01T11:43:15;14.65;;;7.78;;
38332;SDS011;25748;46.670;14.272;2023-03-01T11:55:00;21.98;;;8.60;;
38332;SDS011;25748;46.670;14.272;2023-03-01T11:57:10;23.20;;;7.90;;
38332;SDS011;25748;46.670;14.272;2023-03-01T12:16:52;22.15;;;7.80;;
38332;SDS011;25748;46.670;14.272;2023-03-01T12:25:45;16.60;;;7.22;;
38332;SDS011;25748;46.670;14.272;2023-03-01T12:41:43;18.05;;;7.45;;
38332;SDS011;25748;46.670;14.272;2023-03-01T12:52:57;25.92;;;7.53;;
38332;SDS011;25748;46.670;14.272;2023-03-01T13:01:00;17.55;;;7.13;;
38332;SDS011;25748;46.670;14.272;2023-03-01T13:06:29;14.35;;;7.32;;
38332;SDS011;25748;46.670;14.272;2023-03-01T13:09:14;23.17;;;8.27;;
38332;SDS011;25748;46.670;14.272;2023-03-01T13:11:51;20.05;;;7.95;;
38332;SDS011;25748;46.670;14.272;2023-03-01T13:16:45;21.50;;;8.23;;
38332;SDS011;25748;46.670;14.272;2023-03-01T13:21:47;19.27;;;6.90;;
38332;SDS011;25748;46.670;14.272;2023-03-01T13:24:25;21.92;;;8.10;;
38332;SDS011;25748;46.670;14.272;2023-03-01T13:29:45;21.33;;;8.32;;
38332;SDS011;25748;46.670;14.272;2023-03-01T13:32:24;20.02;;;8.30;;
38332;SDS011;25748;46.670;14.272;2023-03-01T13:37:42;24.60;;;8.13;;
38332;SDS011;25748;46.670;14.272;2023-03-01T13:42:42;22.35;;;8.80;;
38332;SDS011;25748;46.670;14.272;2023-03-01T13:47:53;19.33;;;9.30;;
38332;SDS011;25748;46.670;14.272;2023-03-01T13:50:24;21.48;;;9.00;;
38332;SDS011;25748;46.670;14.272;2023-03-01T13:52:54;27.13;;;9.68;;
38332;SDS011;25748;46.670;14.272;2023-03-01T13:55:48;18.05;;;8.38;;
38332;SDS011;25748;46.670;14.272;2023-03-01T13:58:30;22.75;;;7.60;;
38332;SDS011;25748;46.670;14.272;2023-03-01T14:01:01;23.27;;;8.77;;
38332;SDS011;25748;46.670;14.272;2023-03-01T14:03:32;20.13;;;7.70;;
38332;SDS011;25748;46.670;14.272;2023-03-01T14:08:33;18.70;;;8.60;;
38332;SDS011;25748;46.670;14.272;2023-03-01T14:16:28;19.98;;;9.07;;
38332;SDS011;25748;46.670;14.272;2023-03-01T14:19:25;19.92;;;8.15;;
38332;SDS011;25748;46.670;14.272;2023-03-01T14:22:00;18.23;;;8.02;;
38332;SDS011;25748;46.670;14.272;2023-03-01T14:24:38;20.25;;;9.13;;
38332;SDS011;25748;46.670;14.272;2023-03-01T14:27:14;14.98;;;6.95;;
38332;SDS011;25748;46.670;14.272;2023-03-01T14:29:40;18.08;;;8.73;;
38332;SDS011;25748;46.670;14.272;2023-03-01T14:32:10;21.98;;;8.55;;
38332;SDS011;25748;46.670;14.272;2023-03-01T14:34:46;20.05;;;7.55;;
38332;SDS011;25748;46.670;14.272;2023-03-01T14:39:51;18.10;;;6.78;;
38332;SDS011;25748;46.670;14.272;2023-03-01T14:42:18;21.88;;;9.18;;
38332;SDS011;25748;46.670;14.272;2023-03-01T14:44:47;18.30;;;8.15;;
38332;SDS011;25748;46.670;14.272;2023-03-01T14:47:17;19.55;;;8.10;;
38332;SDS011;25748;46.670;14.272;2023-03-01T14:50:04;19.85;;;7.88;;
38332;SDS011;25748;46.670;14.272;2023-03-01T14:52:48;25.17;;;8.38;;
38332;SDS011;25748;46.670;14.272;2023-03-01T14:55:20;16.25;;;7.05;;
38332;SDS011;25748;46.670;14.272;2023-03-01T14:57:51;17.48;;;7.40;;
38332;SDS011;25748;46.670;14.272;2023-03-01T15:02:47;24.98;;;7.97;;
38332;SDS011;25748;46.670;14.272;2023-03-01T15:05:15;17.83;;;7.63;;
38332;SDS011;25748;46.670;14.272;2023-03-01T15:07:50;20.95;;;7.70;;
38332;SDS011;25748;46.670;14.272;2023-03-01T15:10:37;22.38;;;8.05;;
38332;SDS011;25748;46.670;14.272;2023-03-01T15:13:14;18.27;;;6.97;;
38332;SDS011;25748;46.670;14.272;2023-03-01T15:15:51;14.90;;;6.57;;
38332;SDS011;25748;46.670;14.272;2023-03-01T15:18:26;19.08;;;7.90;;
38332;SDS011;25748;46.670;14.272;2023-03-01T15:20:54;18.75;;;7.63;;
38332;SDS011;25748;46.670;14.272;2023-03-01T15:23:28;20.67;;;7.93;;
38332;SDS011;25748;46.670;14.272;2023-03-01T15:25:55;14.63;;;6.88;;
38332;SDS011;25748;46.670;14.272;2023-03-01T15:28:26;18.40;;;7.53;;
38332;SDS011;25748;46.670;14.272;2023-03-01T15:31:00;16.17;;;7.53;;
38332;SDS011;25748;46.670;14.272;2023-03-01T15:33:45;17.05;;;7.15;;
38332;SDS011;25748;46.670;14.272;2023-03-01T15:39:26;20.13;;;7.40;;
38332;SDS011;25748;46.670;14.272;2023-03-01T15:42:02;20.10;;;6.95;;
38332;SDS011;25748;46.670;14.272;2023-03-01T15:44:32;21.50;;;7.88;;
38332;SDS011;25748;46.670;14.272;2023-03-01T15:47:00;19.85;;;8.38;;
38332;SDS011;25748;46.670;14.272;2023-03-01T15:52:03;18.65;;;7.68;;
38332;SDS011;25748;46.670;14.272;2023-03-01T15:54:30;25.52;;;9.25;;
38332;SDS011;25748;46.670;14.272;2023-03-01T15:56:56;19.85;;;8.40;;
38332;SDS011;25748;46.670;14.272;2023-03-01T15:59:21;22.50;;;9.10;;
38332;SDS011;25748;46.670;14.272;2023-03-01T16:01:47;24.67;;;8.35;;
38332;SDS011;25748;46.670;14.272;2023-03-01T16:04:14;20.02;;;7.30;;
38332;SDS011;25748;46.670;14.272;2023-03-01T16:06:52;32.58;;;8.02;;
38332;SDS011;25748;46.670;14.272;2023-03-01T16:09:22;17.15;;;7.97;;
38332;SDS011;25748;46.670;14.272;2023-03-01T16:11:52;17.08;;;7.32;;
38332;SDS011;25748;46.670;14.272;2023-03-01T16:14:18;20.58;;;7.38;;
38332;SDS011;25748;46.670;14.272;2023-03-01T16:16:45;18.67;;;8.38;;
38332;SDS011;25748;46.670;14.272;2023-03-01T16:19:12;17.77;;;7.78;;
38332;SDS011;25748;46.670;14.272;2023-03-01T16:21:39;15.77;;;7.93;;
38332;SDS011;25748;46.670;14.272;2023-03-01T16:24:04;19.17;;;6.85;;
38332;SDS011;25748;46.670;14.272;2023-03-01T16:26:31;28.83;;;7.32;;
38332;SDS011;25748;46.670;14.272;2023-03-01T16:28:57;18.80;;;7.30;;
38332;SDS011;25748;46.670;14.272;2023-03-01T16:31:23;17.50;;;7.50;;
38332;SDS011;25748;46.670;14.272;2023-03-01T16:33:52;19.23;;;7.82;;
38332;SDS011;25748;46.670;14.272;2023-03-01T16:36:19;15.50;;;7.25;;
38332;SDS011;25748;46.670;14.272;2023-03-01T16:38:48;26.67;;;7.72;;
38332;SDS011;25748;46.670;14.272;2023-03-01T16:41:16;22.40;;;7.35;;
38332;SDS011;25748;46.670;14.272;2023-03-01T16:43:43;17.95;;;7.88;;
38332;SDS011;25748;46.670;14.272;2023-03-01T16:46:15;19.80;;;8.35;;
38332;SDS011;25748;46.670;14.272;2023-03-01T16:48:46;19.70;;;7.35;;
38332;SDS011;25748;46.670;14.272;2023-03-01T16:51:12;18.90;;;7.63;;
38332;SDS011;25748;46.670;14.272;2023-03-01T16:53:38;21.13;;;7.95;;